KCWI

Clinton Municipal Airport

Clinton, Iowa, USA
METAR KCWI 151556Z AUTO 05005KT 10SM CLR 01/01 A3020 RMK AO2 SLP257 T00110006 FZRANO
Observed Flight Rules
Dec-15 @ 15:56 UTC (8 minutes ago) Visual Flight Rules
Wind Visibility Clouds
50° at 5 knots 10 miles
  • Clear skies
Temperatures Readings
Current 1°C / 34°F
Dewpoint 1°C / 34°F
Humidity 100%
Altimeter 30.2" Hg
Pressure 1025.7 hPa
Elevation 216
METAR KCWI 151556Z AUTO 05005KT 10SM CLR 01/01 A3020 RMK AO2 SLP257 T00110006 FZRANO
Observed Flight Rules
Dec-15 @ 15:56 UTC
(8 minutes ago)
VFR
Wind Visibility
50° at 5 knots 10 miles
Clouds
  • Clear skies
Temperature Dewpoint
1°C / 34°F 1°C / 34°F
Humidity Altimeter Pressure
100% 30.2" Hg 1025.7 hPa